sensor_id;sensor_type;location;lat;lon;timestamp;P1;durP1;ratioP1;P2;durP2;ratioP2
9294;SDS011;4686;44.496;11.324;2023-05-13T00:01:41;35.07;;;20.57;;
9294;SDS011;4686;44.496;11.324;2023-05-13T00:04:10;36.33;;;17.37;;
9294;SDS011;4686;44.496;11.324;2023-05-13T00:06:37;48.57;;;25.00;;
9294;SDS011;4686;44.496;11.324;2023-05-13T00:09:04;45.80;;;22.77;;
9294;SDS011;4686;44.496;11.324;2023-05-13T00:11:32;38.77;;;21.90;;
9294;SDS011;4686;44.496;11.324;2023-05-13T00:14:00;31.30;;;18.63;;
9294;SDS011;4686;44.496;11.324;2023-05-13T00:16:28;31.33;;;19.97;;
9294;SDS011;4686;44.496;11.324;2023-05-13T00:18:59;36.43;;;22.10;;
9294;SDS011;4686;44.496;11.324;2023-05-13T00:21:27;46.00;;;25.77;;
9294;SDS011;4686;44.496;11.324;2023-05-13T00:23:57;51.63;;;27.50;;
9294;SDS011;4686;44.496;11.324;2023-05-13T00:26:27;67.07;;;31.53;;
9294;SDS011;4686;44.496;11.324;2023-05-13T00:28:55;58.73;;;30.70;;
9294;SDS011;4686;44.496;11.324;2023-05-13T00:31:22;54.17;;;30.57;;
9294;SDS011;4686;44.496;11.324;2023-05-13T00:33:49;61.93;;;32.90;;
9294;SDS011;4686;44.496;11.324;2023-05-13T00:36:16;67.87;;;35.93;;
9294;SDS011;4686;44.496;11.324;2023-05-13T00:38:46;70.60;;;36.27;;
9294;SDS011;4686;44.496;11.324;2023-05-13T00:41:14;78.17;;;38.30;;
9294;SDS011;4686;44.496;11.324;2023-05-13T00:43:41;83.97;;;40.17;;
9294;SDS011;4686;44.496;11.324;2023-05-13T00:46:08;73.27;;;38.77;;
9294;SDS011;4686;44.496;11.324;2023-05-13T00:48:36;99.57;;;44.80;;
9294;SDS011;4686;44.496;11.324;2023-05-13T00:51:04;86.70;;;44.20;;
9294;SDS011;4686;44.496;11.324;2023-05-13T00:53:31;95.77;;;45.57;;
9294;SDS011;4686;44.496;11.324;2023-05-13T00:56:00;78.23;;;43.03;;
9294;SDS011;4686;44.496;11.324;2023-05-13T00:58:27;85.60;;;43.67;;
9294;SDS011;4686;44.496;11.324;2023-05-13T01:00:56;89.07;;;45.57;;
9294;SDS011;4686;44.496;11.324;2023-05-13T01:03:28;93.23;;;45.10;;
9294;SDS011;4686;44.496;11.324;2023-05-13T01:05:58;89.67;;;44.27;;
9294;SDS011;4686;44.496;11.324;2023-05-13T01:08:29;94.40;;;45.03;;
9294;SDS011;4686;44.496;11.324;2023-05-13T01:10:58;90.80;;;44.20;;
9294;SDS011;4686;44.496;11.324;2023-05-13T01:13:30;93.57;;;45.20;;
9294;SDS011;4686;44.496;11.324;2023-05-13T01:15:59;90.57;;;43.70;;
9294;SDS011;4686;44.496;11.324;2023-05-13T01:18:29;93.23;;;45.60;;
9294;SDS011;4686;44.496;11.324;2023-05-13T01:20:57;85.97;;;41.40;;
9294;SDS011;4686;44.496;11.324;2023-05-13T01:23:28;80.87;;;44.50;;
9294;SDS011;4686;44.496;11.324;2023-05-13T01:25:55;86.93;;;42.63;;
9294;SDS011;4686;44.496;11.324;2023-05-13T01:28:22;80.63;;;41.60;;
9294;SDS011;4686;44.496;11.324;2023-05-13T01:30:50;81.77;;;40.10;;
9294;SDS011;4686;44.496;11.324;2023-05-13T01:33:17;75.37;;;40.67;;
9294;SDS011;4686;44.496;11.324;2023-05-13T01:35:44;75.90;;;39.67;;
9294;SDS011;4686;44.496;11.324;2023-05-13T01:38:14;66.77;;;37.43;;
9294;SDS011;4686;44.496;11.324;2023-05-13T01:40:43;75.10;;;36.70;;
9294;SDS011;4686;44.496;11.324;2023-05-13T01:43:10;60.77;;;34.37;;
9294;SDS011;4686;44.496;11.324;2023-05-13T01:45:38;66.60;;;36.47;;
9294;SDS011;4686;44.496;11.324;2023-05-13T01:48:05;73.87;;;38.63;;
9294;SDS011;4686;44.496;11.324;2023-05-13T01:50:32;64.77;;;35.87;;
9294;SDS011;4686;44.496;11.324;2023-05-13T01:52:59;70.50;;;36.90;;
9294;SDS011;4686;44.496;11.324;2023-05-13T01:55:27;60.83;;;35.23;;
9294;SDS011;4686;44.496;11.324;2023-05-13T01:57:55;73.07;;;35.33;;
9294;SDS011;4686;44.496;11.324;2023-05-13T02:00:23;65.07;;;36.40;;
9294;SDS011;4686;44.496;11.324;2023-05-13T02:02:50;71.00;;;36.83;;
9294;SDS011;4686;44.496;11.324;2023-05-13T02:05:17;67.30;;;36.50;;
9294;SDS011;4686;44.496;11.324;2023-05-13T02:07:45;72.70;;;39.03;;
9294;SDS011;4686;44.496;11.324;2023-05-13T02:10:12;72.73;;;36.70;;
9294;SDS011;4686;44.496;11.324;2023-05-13T02:12:39;58.67;;;34.23;;
9294;SDS011;4686;44.496;11.324;2023-05-13T02:15:09;64.40;;;35.37;;
9294;SDS011;4686;44.496;11.324;2023-05-13T02:17:36;61.50;;;35.20;;
9294;SDS011;4686;44.496;11.324;2023-05-13T02:20:03;66.47;;;36.70;;
9294;SDS011;4686;44.496;11.324;2023-05-13T02:22:31;66.80;;;36.33;;
9294;SDS011;4686;44.496;11.324;2023-05-13T02:24:58;73.73;;;38.60;;
9294;SDS011;4686;44.496;11.324;2023-05-13T02:27:26;68.77;;;36.70;;
9294;SDS011;4686;44.496;11.324;2023-05-13T02:29:53;66.30;;;35.30;;
9294;SDS011;4686;44.496;11.324;2023-05-13T02:32:22;67.67;;;35.27;;
9294;SDS011;4686;44.496;11.324;2023-05-13T02:34:49;65.80;;;34.83;;
9294;SDS011;4686;44.496;11.324;2023-05-13T02:37:16;63.03;;;34.57;;
9294;SDS011;4686;44.496;11.324;2023-05-13T02:39:43;61.97;;;35.07;;
9294;SDS011;4686;44.496;11.324;2023-05-13T02:42:10;53.87;;;33.30;;
9294;SDS011;4686;44.496;11.324;2023-05-13T02:44:38;53.10;;;30.77;;
9294;SDS011;4686;44.496;11.324;2023-05-13T02:47:08;49.80;;;30.73;;
9294;SDS011;4686;44.496;11.324;2023-05-13T02:49:36;56.87;;;31.20;;
9294;SDS011;4686;44.496;11.324;2023-05-13T02:52:04;48.13;;;28.83;;
9294;SDS011;4686;44.496;11.324;2023-05-13T02:54:31;41.77;;;24.40;;
9294;SDS011;4686;44.496;11.324;2023-05-13T02:56:59;42.83;;;26.40;;
9294;SDS011;4686;44.496;11.324;2023-05-13T02:59:26;42.30;;;26.43;;
9294;SDS011;4686;44.496;11.324;2023-05-13T03:01:53;41.63;;;25.17;;
9294;SDS011;4686;44.496;11.324;2023-05-13T03:04:21;40.17;;;25.23;;
9294;SDS011;4686;44.496;11.324;2023-05-13T03:06:50;35.50;;;22.27;;
9294;SDS011;4686;44.496;11.324;2023-05-13T03:09:18;41.03;;;25.40;;
9294;SDS011;4686;44.496;11.324;2023-05-13T03:11:46;35.97;;;22.37;;
9294;SDS011;4686;44.496;11.324;2023-05-13T03:14:13;41.87;;;24.80;;
9294;SDS011;4686;44.496;11.324;2023-05-13T03:16:40;35.80;;;26.03;;
9294;SDS011;4686;44.496;11.324;2023-05-13T03:19:08;34.57;;;26.03;;
9294;SDS011;4686;44.496;11.324;2023-05-13T03:21:36;41.40;;;26.13;;
9294;SDS011;4686;44.496;11.324;2023-05-13T03:24:05;41.73;;;26.87;;
9294;SDS011;4686;44.496;11.324;2023-05-13T03:26:33;43.27;;;27.80;;
9294;SDS011;4686;44.496;11.324;2023-05-13T03:29:00;39.00;;;26.13;;
9294;SDS011;4686;44.496;11.324;2023-05-13T03:31:28;50.43;;;31.17;;
9294;SDS011;4686;44.496;11.324;2023-05-13T03:33:57;41.87;;;28.73;;
9294;SDS011;4686;44.496;11.324;2023-05-13T03:36:27;48.57;;;32.57;;
9294;SDS011;4686;44.496;11.324;2023-05-13T03:38:54;51.60;;;30.87;;
9294;SDS011;4686;44.496;11.324;2023-05-13T03:41:25;51.20;;;31.70;;
9294;SDS011;4686;44.496;11.324;2023-05-13T03:43:53;48.40;;;32.77;;
9294;SDS011;4686;44.496;11.324;2023-05-13T03:46:20;51.13;;;33.07;;
9294;SDS011;4686;44.496;11.324;2023-05-13T03:48:47;53.27;;;33.93;;
9294;SDS011;4686;44.496;11.324;2023-05-13T03:51:15;52.47;;;34.80;;
9294;SDS011;4686;44.496;11.324;2023-05-13T03:53:43;53.83;;;35.17;;
9294;SDS011;4686;44.496;11.324;2023-05-13T03:56:10;56.87;;;36.30;;
9294;SDS011;4686;44.496;11.324;2023-05-13T03:58:39;55.00;;;35.03;;
9294;SDS011;4686;44.496;11.324;2023-05-13T04:01:06;55.40;;;35.43;;
9294;SDS011;4686;44.496;11.324;2023-05-13T04:03:34;52.37;;;35.10;;
9294;SDS011;4686;44.496;11.324;2023-05-13T04:06:01;55.40;;;34.10;;
9294;SDS011;4686;44.496;11.324;2023-05-13T04:08:30;52.77;;;34.40;;
9294;SDS011;4686;44.496;11.324;2023-05-13T04:10:58;50.50;;;34.10;;
9294;SDS011;4686;44.496;11.324;2023-05-13T04:13:26;51.70;;;33.13;;
9294;SDS011;4686;44.496;11.324;2023-05-13T04:15:54;49.57;;;32.87;;
9294;SDS011;4686;44.496;11.324;2023-05-13T04:18:22;60.10;;;36.30;;
9294;SDS011;4686;44.496;11.324;2023-05-13T04:20:50;57.83;;;34.10;;
9294;SDS011;4686;44.496;11.324;2023-05-13T04:23:18;58.97;;;33.20;;
9294;SDS011;4686;44.496;11.324;2023-05-13T04:25:49;49.57;;;32.00;;
9294;SDS011;4686;44.496;11.324;2023-05-13T04:28:16;52.80;;;34.00;;
9294;SDS011;4686;44.496;11.324;2023-05-13T04:30:43;47.90;;;32.27;;
9294;SDS011;4686;44.496;11.324;2023-05-13T04:33:13;53.20;;;33.67;;
9294;SDS011;4686;44.496;11.324;2023-05-13T04:35:40;51.50;;;33.47;;
9294;SDS011;4686;44.496;11.324;2023-05-13T04:38:08;51.97;;;31.80;;
9294;SDS011;4686;44.496;11.324;2023-05-13T04:40:37;47.40;;;29.93;;
9294;SDS011;4686;44.496;11.324;2023-05-13T04:43:05;46.27;;;29.93;;
9294;SDS011;4686;44.496;11.324;2023-05-13T04:45:32;56.53;;;30.97;;
9294;SDS011;4686;44.496;11.324;2023-05-13T04:47:59;52.60;;;30.47;;
9294;SDS011;4686;44.496;11.324;2023-05-13T04:50:28;51.30;;;30.60;;
9294;SDS011;4686;44.496;11.324;2023-05-13T04:52:56;54.93;;;33.73;;
9294;SDS011;4686;44.496;11.324;2023-05-13T04:55:23;52.23;;;31.50;;
9294;SDS011;4686;44.496;11.324;2023-05-13T04:57:51;52.60;;;33.63;;
9294;SDS011;4686;44.496;11.324;2023-05-13T05:00:19;57.80;;;32.00;;
9294;SDS011;4686;44.496;11.324;2023-05-13T05:02:49;52.07;;;31.70;;
9294;SDS011;4686;44.496;11.324;2023-05-13T05:05:17;49.47;;;30.60;;
9294;SDS011;4686;44.496;11.324;2023-05-13T05:07:45;48.33;;;30.70;;
9294;SDS011;4686;44.496;11.324;2023-05-13T05:10:12;46.47;;;28.20;;
9294;SDS011;4686;44.496;11.324;2023-05-13T05:12:40;48.70;;;30.87;;
9294;SDS011;4686;44.496;11.324;2023-05-13T05:15:08;56.83;;;31.60;;
9294;SDS011;4686;44.496;11.324;2023-05-13T05:17:39;50.00;;;31.07;;
9294;SDS011;4686;44.496;11.324;2023-05-13T05:20:08;51.13;;;28.77;;
9294;SDS011;4686;44.496;11.324;2023-05-13T05:22:35;49.80;;;30.47;;
9294;SDS011;4686;44.496;11.324;2023-05-13T05:25:05;45.37;;;28.67;;
9294;SDS011;4686;44.496;11.324;2023-05-13T05:27:32;49.13;;;29.40;;
9294;SDS011;4686;44.496;11.324;2023-05-13T05:30:00;48.90;;;31.77;;
9294;SDS011;4686;44.496;11.324;2023-05-13T05:32:27;56.07;;;33.10;;
9294;SDS011;4686;44.496;11.324;2023-05-13T05:34:55;48.27;;;29.50;;
9294;SDS011;4686;44.496;11.324;2023-05-13T05:37:23;62.00;;;30.23;;
9294;SDS011;4686;44.496;11.324;2023-05-13T05:39:52;50.40;;;29.20;;
9294;SDS011;4686;44.496;11.324;2023-05-13T05:42:21;46.10;;;29.90;;
9294;SDS011;4686;44.496;11.324;2023-05-13T05:44:49;48.13;;;31.20;;
9294;SDS011;4686;44.496;11.324;2023-05-13T05:47:16;44.93;;;27.80;;
9294;SDS011;4686;44.496;11.324;2023-05-13T05:49:43;43.37;;;27.40;;
9294;SDS011;4686;44.496;11.324;2023-05-13T05:52:10;45.93;;;28.97;;
9294;SDS011;4686;44.496;11.324;2023-05-13T05:54:38;44.33;;;28.80;;
9294;SDS011;4686;44.496;11.324;2023-05-13T05:57:05;51.70;;;29.70;;
9294;SDS011;4686;44.496;11.324;2023-05-13T05:59:34;38.93;;;26.13;;
9294;SDS011;4686;44.496;11.324;2023-05-13T06:02:01;44.57;;;28.10;;
9294;SDS011;4686;44.496;11.324;2023-05-13T06:04:29;45.40;;;27.33;;
9294;SDS011;4686;44.496;11.324;2023-05-13T06:06:57;37.07;;;24.97;;
9294;SDS011;4686;44.496;11.324;2023-05-13T06:09:27;37.93;;;23.43;;
9294;SDS011;4686;44.496;11.324;2023-05-13T06:11:55;39.60;;;25.80;;
9294;SDS011;4686;44.496;11.324;2023-05-13T06:14:22;40.77;;;24.80;;
9294;SDS011;4686;44.496;11.324;2023-05-13T06:16:51;40.40;;;25.13;;
9294;SDS011;4686;44.496;11.324;2023-05-13T06:19:18;33.10;;;23.13;;
9294;SDS011;4686;44.496;11.324;2023-05-13T06:21:45;37.80;;;22.87;;
9294;SDS011;4686;44.496;11.324;2023-05-13T06:24:13;40.50;;;24.10;;
9294;SDS011;4686;44.496;11.324;2023-05-13T06:26:40;35.40;;;24.20;;
9294;SDS011;4686;44.496;11.324;2023-05-13T06:29:08;41.63;;;25.37;;
9294;SDS011;4686;44.496;11.324;2023-05-13T06:31:36;35.97;;;24.60;;
9294;SDS011;4686;44.496;11.324;2023-05-13T06:34:04;36.43;;;24.77;;
9294;SDS011;4686;44.496;11.324;2023-05-13T06:36:32;38.93;;;24.60;;
9294;SDS011;4686;44.496;11.324;2023-05-13T06:38:59;42.70;;;25.73;;
9294;SDS011;4686;44.496;11.324;2023-05-13T06:41:27;40.03;;;25.60;;
9294;SDS011;4686;44.496;11.324;2023-05-13T06:43:55;43.37;;;26.13;;
9294;SDS011;4686;44.496;11.324;2023-05-13T06:46:22;47.10;;;27.07;;
9294;SDS011;4686;44.496;11.324;2023-05-13T06:48:50;44.23;;;26.13;;
9294;SDS011;4686;44.496;11.324;2023-05-13T06:51:22;43.80;;;25.93;;
9294;SDS011;4686;44.496;11.324;2023-05-13T06:53:50;38.83;;;25.90;;
9294;SDS011;4686;44.496;11.324;2023-05-13T06:56:18;42.37;;;26.13;;
9294;SDS011;4686;44.496;11.324;2023-05-13T06:58:47;36.83;;;23.63;;
9294;SDS011;4686;44.496;11.324;2023-05-13T07:01:22;44.30;;;24.43;;
9294;SDS011;4686;44.496;11.324;2023-05-13T07:03:52;43.60;;;24.13;;
9294;SDS011;4686;44.496;11.324;2023-05-13T07:06:19;38.40;;;23.93;;
9294;SDS011;4686;44.496;11.324;2023-05-13T07:08:48;44.43;;;23.00;;
9294;SDS011;4686;44.496;11.324;2023-05-13T07:11:15;42.67;;;24.87;;
9294;SDS011;4686;44.496;11.324;2023-05-13T07:13:43;36.80;;;23.63;;
9294;SDS011;4686;44.496;11.324;2023-05-13T07:16:10;40.00;;;23.87;;
9294;SDS011;4686;44.496;11.324;2023-05-13T07:18:37;38.57;;;22.37;;
9294;SDS011;4686;44.496;11.324;2023-05-13T07:21:05;37.30;;;23.33;;
9294;SDS011;4686;44.496;11.324;2023-05-13T07:23:32;34.23;;;22.10;;
9294;SDS011;4686;44.496;11.324;2023-05-13T07:26:02;31.10;;;20.50;;
9294;SDS011;4686;44.496;11.324;2023-05-13T07:28:31;37.77;;;23.77;;
9294;SDS011;4686;44.496;11.324;2023-05-13T07:30:58;35.17;;;22.43;;
9294;SDS011;4686;44.496;11.324;2023-05-13T07:33:25;40.73;;;23.93;;
9294;SDS011;4686;44.496;11.324;2023-05-13T07:35:53;37.20;;;22.77;;
9294;SDS011;4686;44.496;11.324;2023-05-13T07:38:24;30.07;;;20.63;;
9294;SDS011;4686;44.496;11.324;2023-05-13T07:40:54;32.50;;;19.50;;
9294;SDS011;4686;44.496;11.324;2023-05-13T07:43:22;33.03;;;21.23;;
9294;SDS011;4686;44.496;11.324;2023-05-13T07:45:52;33.67;;;21.37;;
9294;SDS011;4686;44.496;11.324;2023-05-13T07:48:20;34.33;;;21.57;;
9294;SDS011;4686;44.496;11.324;2023-05-13T07:50:48;32.23;;;20.90;;
9294;SDS011;4686;44.496;11.324;2023-05-13T07:53:16;30.60;;;18.75;;
9294;SDS011;4686;44.496;11.324;2023-05-13T07:55:43;32.20;;;20.33;;
9294;SDS011;4686;44.496;11.324;2023-05-13T07:58:10;30.60;;;19.73;;
9294;SDS011;4686;44.496;11.324;2023-05-13T08:00:46;39.37;;;21.80;;
9294;SDS011;4686;44.496;11.324;2023-05-13T08:03:17;27.17;;;19.60;;
9294;SDS011;4686;44.496;11.324;2023-05-13T08:05:51;31.60;;;18.27;;
9294;SDS011;4686;44.496;11.324;2023-05-13T08:08:19;27.20;;;17.87;;
9294;SDS011;4686;44.496;11.324;2023-05-13T08:10:46;31.53;;;17.40;;
9294;SDS011;4686;44.496;11.324;2023-05-13T08:13:16;23.27;;;16.70;;
9294;SDS011;4686;44.496;11.324;2023-05-13T08:15:48;27.10;;;19.27;;
9294;SDS011;4686;44.496;11.324;2023-05-13T08:18:16;22.43;;;16.37;;
9294;SDS011;4686;44.496;11.324;2023-05-13T08:20:44;27.60;;;19.20;;
9294;SDS011;4686;44.496;11.324;2023-05-13T08:23:13;20.03;;;13.70;;
9294;SDS011;4686;44.496;11.324;2023-05-13T08:25:41;21.20;;;14.83;;
9294;SDS011;4686;44.496;11.324;2023-05-13T08:28:12;18.97;;;13.77;;
9294;SDS011;4686;44.496;11.324;2023-05-13T08:30:39;19.57;;;15.20;;
9294;SDS011;4686;44.496;11.324;2023-05-13T08:33:15;22.10;;;15.00;;
9294;SDS011;4686;44.496;11.324;2023-05-13T08:35:45;23.30;;;16.70;;
9294;SDS011;4686;44.496;11.324;2023-05-13T08:38:13;25.53;;;16.97;;
9294;SDS011;4686;44.496;11.324;2023-05-13T08:40:46;30.37;;;18.73;;
9294;SDS011;4686;44.496;11.324;2023-05-13T08:43:15;21.27;;;17.00;;
9294;SDS011;4686;44.496;11.324;2023-05-13T08:45:43;31.13;;;23.63;;
9294;SDS011;4686;44.496;11.324;2023-05-13T08:48:14;33.80;;;24.53;;
9294;SDS011;4686;44.496;11.324;2023-05-13T08:50:53;25.10;;;19.00;;
9294;SDS011;4686;44.496;11.324;2023-05-13T08:53:27;27.80;;;19.60;;
9294;SDS011;4686;44.496;11.324;2023-05-13T08:55:56;30.43;;;21.37;;
9294;SDS011;4686;44.496;11.324;2023-05-13T08:58:23;28.23;;;20.63;;
9294;SDS011;4686;44.496;11.324;2023-05-13T09:00:54;32.37;;;22.07;;
9294;SDS011;4686;44.496;11.324;2023-05-13T09:06:07;28.53;;;21.77;;
9294;SDS011;4686;44.496;11.324;2023-05-13T09:08:34;27.30;;;21.13;;
9294;SDS011;4686;44.496;11.324;2023-05-13T09:11:22;28.73;;;22.20;;
9294;SDS011;4686;44.496;11.324;2023-05-13T09:13:57;34.80;;;22.47;;
9294;SDS011;4686;44.496;11.324;2023-05-13T09:16:28;28.77;;;22.30;;
9294;SDS011;4686;44.496;11.324;2023-05-13T09:19:01;27.67;;;21.83;;
9294;SDS011;4686;44.496;11.324;2023-05-13T09:21:39;30.50;;;20.47;;
9294;SDS011;4686;44.496;11.324;2023-05-13T09:24:09;32.93;;;25.80;;
9294;SDS011;4686;44.496;11.324;2023-05-13T09:26:37;27.60;;;20.57;;
9294;SDS011;4686;44.496;11.324;2023-05-13T09:29:13;24.57;;;18.23;;
9294;SDS011;4686;44.496;11.324;2023-05-13T09:31:41;24.60;;;19.67;;
9294;SDS011;4686;44.496;11.324;2023-05-13T09:34:30;19.93;;;17.00;;
9294;SDS011;4686;44.496;11.324;2023-05-13T09:37:00;20.23;;;18.03;;
9294;SDS011;4686;44.496;11.324;2023-05-13T09:39:28;24.17;;;18.50;;
9294;SDS011;4686;44.496;11.324;2023-05-13T09:41:56;22.13;;;18.20;;
9294;SDS011;4686;44.496;11.324;2023-05-13T09:44:24;20.30;;;15.33;;
9294;SDS011;4686;44.496;11.324;2023-05-13T09:46:54;17.20;;;13.77;;
9294;SDS011;4686;44.496;11.324;2023-05-13T09:49:22;13.47;;;12.17;;
9294;SDS011;4686;44.496;11.324;2023-05-13T09:51:52;18.50;;;15.57;;
9294;SDS011;4686;44.496;11.324;2023-05-13T09:54:22;16.10;;;13.30;;
9294;SDS011;4686;44.496;11.324;2023-05-13T09:57:08;11.50;;;10.43;;
9294;SDS011;4686;44.496;11.324;2023-05-13T09:59:40;10.53;;;9.37;;
9294;SDS011;4686;44.496;11.324;2023-05-13T10:02:23;12.60;;;10.23;;
9294;SDS011;4686;44.496;11.324;2023-05-13T10:05:17;8.50;;;7.60;;
9294;SDS011;4686;44.496;11.324;2023-05-13T10:07:48;9.70;;;8.70;;
9294;SDS011;4686;44.496;11.324;2023-05-13T10:10:17;6.77;;;6.17;;
9294;SDS011;4686;44.496;11.324;2023-05-13T10:12:48;10.73;;;7.40;;
9294;SDS011;4686;44.496;11.324;2023-05-13T10:15:19;7.17;;;5.37;;
9294;SDS011;4686;44.496;11.324;2023-05-13T10:17:47;5.70;;;5.20;;
9294;SDS011;4686;44.496;11.324;2023-05-13T10:20:16;18.80;;;10.80;;
9294;SDS011;4686;44.496;11.324;2023-05-13T10:22:49;5.87;;;5.37;;
9294;SDS011;4686;44.496;11.324;2023-05-13T10:25:18;5.70;;;5.20;;
9294;SDS011;4686;44.496;11.324;2023-05-13T10:27:51;6.20;;;5.60;;
9294;SDS011;4686;44.496;11.324;2023-05-13T10:30:23;9.10;;;7.10;;
9294;SDS011;4686;44.496;11.324;2023-05-13T10:32:53;6.77;;;5.60;;
9294;SDS011;4686;44.496;11.324;2023-05-13T10:35:21;6.30;;;5.00;;
9294;SDS011;4686;44.496;11.324;2023-05-13T10:37:53;4.93;;;4.53;;
9294;SDS011;4686;44.496;11.324;2023-05-13T10:43:10;3.83;;;3.43;;
9294;SDS011;4686;44.496;11.324;2023-05-13T10:45:46;5.73;;;5.00;;
9294;SDS011;4686;44.496;11.324;2023-05-13T10:48:14;8.47;;;7.70;;
9294;SDS011;4686;44.496;11.324;2023-05-13T10:50:51;8.70;;;4.83;;
9294;SDS011;4686;44.496;11.324;2023-05-13T10:53:19;5.40;;;4.40;;
9294;SDS011;4686;44.496;11.324;2023-05-13T10:55:50;8.10;;;6.40;;
9294;SDS011;4686;44.496;11.324;2023-05-13T10:58:20;4.07;;;3.50;;
9294;SDS011;4686;44.496;11.324;2023-05-13T11:00:49;6.47;;;5.90;;
9294;SDS011;4686;44.496;11.324;2023-05-13T11:03:26;8.47;;;4.43;;
9294;SDS011;4686;44.496;11.324;2023-05-13T11:06:01;6.23;;;4.30;;
9294;SDS011;4686;44.496;11.324;2023-05-13T11:08:40;10.60;;;8.63;;
9294;SDS011;4686;44.496;11.324;2023-05-13T11:11:31;5.73;;;4.17;;
9294;SDS011;4686;44.496;11.324;2023-05-13T11:14:17;6.50;;;5.90;;
9294;SDS011;4686;44.496;11.324;2023-05-13T11:16:45;5.07;;;4.50;;
9294;SDS011;4686;44.496;11.324;2023-05-13T11:19:18;8.77;;;7.60;;
9294;SDS011;4686;44.496;11.324;2023-05-13T11:21:46;10.60;;;7.93;;
9294;SDS011;4686;44.496;11.324;2023-05-13T11:24:16;6.13;;;5.53;;
9294;SDS011;4686;44.496;11.324;2023-05-13T11:26:58;9.10;;;4.97;;
9294;SDS011;4686;44.496;11.324;2023-05-13T11:29:46;6.53;;;4.43;;
9294;SDS011;4686;44.496;11.324;2023-05-13T11:34:59;13.67;;;8.87;;
9294;SDS011;4686;44.496;11.324;2023-05-13T11:37:30;8.63;;;7.13;;
9294;SDS011;4686;44.496;11.324;2023-05-13T11:39:57;4.87;;;4.40;;
9294;SDS011;4686;44.496;11.324;2023-05-13T11:42:25;6.10;;;5.60;;
9294;SDS011;4686;44.496;11.324;2023-05-13T11:44:54;3.77;;;3.47;;
9294;SDS011;4686;44.496;11.324;2023-05-13T11:47:24;8.43;;;6.70;;
9294;SDS011;4686;44.496;11.324;2023-05-13T11:49:52;3.50;;;3.20;;
9294;SDS011;4686;44.496;11.324;2023-05-13T11:52:20;8.53;;;7.67;;
9294;SDS011;4686;44.496;11.324;2023-05-13T11:54:47;7.90;;;4.20;;
9294;SDS011;4686;44.496;11.324;2023-05-13T11:57:19;5.20;;;4.43;;
9294;SDS011;4686;44.496;11.324;2023-05-13T11:59:50;6.60;;;4.73;;
9294;SDS011;4686;44.496;11.324;2023-05-13T12:02:21;6.97;;;4.35;;
9294;SDS011;4686;44.496;11.324;2023-05-13T12:04:49;7.67;;;4.90;;
9294;SDS011;4686;44.496;11.324;2023-05-13T12:07:20;3.67;;;3.30;;
9294;SDS011;4686;44.496;11.324;2023-05-13T12:09:47;7.03;;;5.00;;
9294;SDS011;4686;44.496;11.324;2023-05-13T12:12:15;7.83;;;6.83;;
9294;SDS011;4686;44.496;11.324;2023-05-13T12:14:42;9.57;;;5.90;;
9294;SDS011;4686;44.496;11.324;2023-05-13T12:17:11;4.10;;;3.10;;
9294;SDS011;4686;44.496;11.324;2023-05-13T12:19:40;5.73;;;4.00;;
9294;SDS011;4686;44.496;11.324;2023-05-13T12:22:24;4.00;;;3.67;;
9294;SDS011;4686;44.496;11.324;2023-05-13T12:24:52;5.33;;;4.83;;
9294;SDS011;4686;44.496;11.324;2023-05-13T12:27:19;3.87;;;3.47;;
9294;SDS011;4686;44.496;11.324;2023-05-13T12:29:47;4.53;;;4.17;;
9294;SDS011;4686;44.496;11.324;2023-05-13T12:32:15;8.93;;;6.07;;
9294;SDS011;4686;44.496;11.324;2023-05-13T12:34:43;3.57;;;3.27;;
9294;SDS011;4686;44.496;11.324;2023-05-13T12:37:16;6.50;;;4.83;;
9294;SDS011;4686;44.496;11.324;2023-05-13T12:39:44;8.40;;;7.60;;
9294;SDS011;4686;44.496;11.324;2023-05-13T12:42:14;3.73;;;3.33;;
9294;SDS011;4686;44.496;11.324;2023-05-13T12:44:42;7.10;;;6.23;;
9294;SDS011;4686;44.496;11.324;2023-05-13T12:47:10;4.83;;;4.37;;
9294;SDS011;4686;44.496;11.324;2023-05-13T12:49:53;3.73;;;3.10;;
9294;SDS011;4686;44.496;11.324;2023-05-13T12:52:20;4.57;;;3.57;;
9294;SDS011;4686;44.496;11.324;2023-05-13T12:54:48;5.83;;;4.03;;
9294;SDS011;4686;44.496;11.324;2023-05-13T12:57:15;6.73;;;4.83;;
9294;SDS011;4686;44.496;11.324;2023-05-13T12:59:43;3.10;;;2.90;;
9294;SDS011;4686;44.496;11.324;2023-05-13T13:02:10;8.47;;;5.57;;
9294;SDS011;4686;44.496;11.324;2023-05-13T13:04:38;4.50;;;3.73;;
9294;SDS011;4686;44.496;11.324;2023-05-13T13:07:07;10.50;;;8.53;;
9294;SDS011;4686;44.496;11.324;2023-05-13T13:09:36;8.90;;;6.57;;
9294;SDS011;4686;44.496;11.324;2023-05-13T13:12:04;7.10;;;6.40;;
9294;SDS011;4686;44.496;11.324;2023-05-13T13:14:31;4.00;;;3.70;;
9294;SDS011;4686;44.496;11.324;2023-05-13T13:16:58;5.17;;;3.03;;
9294;SDS011;4686;44.496;11.324;2023-05-13T13:19:25;9.63;;;4.70;;
9294;SDS011;4686;44.496;11.324;2023-05-13T13:21:53;6.10;;;4.47;;
9294;SDS011;4686;44.496;11.324;2023-05-13T13:24:22;4.30;;;3.90;;
9294;SDS011;4686;44.496;11.324;2023-05-13T13:26:50;3.60;;;3.30;;
9294;SDS011;4686;44.496;11.324;2023-05-13T13:29:18;17.97;;;3.63;;
9294;SDS011;4686;44.496;11.324;2023-05-13T13:31:45;4.83;;;4.13;;
9294;SDS011;4686;44.496;11.324;2023-05-13T13:34:12;6.83;;;6.13;;
9294;SDS011;4686;44.496;11.324;2023-05-13T13:36:40;3.30;;;3.00;;
9294;SDS011;4686;44.496;11.324;2023-05-13T13:39:07;4.00;;;3.63;;
9294;SDS011;4686;44.496;11.324;2023-05-13T13:41:40;6.20;;;3.23;;
9294;SDS011;4686;44.496;11.324;2023-05-13T13:44:07;3.57;;;3.23;;
9294;SDS011;4686;44.496;11.324;2023-05-13T13:46:35;10.27;;;8.77;;
9294;SDS011;4686;44.496;11.324;2023-05-13T13:49:05;2.80;;;2.60;;
9294;SDS011;4686;44.496;11.324;2023-05-13T13:51:33;4.00;;;3.60;;
9294;SDS011;4686;44.496;11.324;2023-05-13T13:54:02;7.93;;;5.80;;
9294;SDS011;4686;44.496;11.324;2023-05-13T13:56:30;11.33;;;8.43;;
9294;SDS011;4686;44.496;11.324;2023-05-13T13:58:59;11.17;;;9.00;;
9294;SDS011;4686;44.496;11.324;2023-05-13T14:01:28;2.80;;;2.60;;
9294;SDS011;4686;44.496;11.324;2023-05-13T14:04:08;6.27;;;4.67;;
9294;SDS011;4686;44.496;11.324;2023-05-13T14:06:35;8.07;;;6.43;;
9294;SDS011;4686;44.496;11.324;2023-05-13T14:09:02;10.27;;;8.03;;
9294;SDS011;4686;44.496;11.324;2023-05-13T14:11:30;4.73;;;2.63;;
9294;SDS011;4686;44.496;11.324;2023-05-13T14:13:58;5.20;;;4.70;;
9294;SDS011;4686;44.496;11.324;2023-05-13T14:16:25;7.53;;;6.77;;
9294;SDS011;4686;44.496;11.324;2023-05-13T14:18:53;4.10;;;3.70;;
9294;SDS011;4686;44.496;11.324;2023-05-13T14:21:20;9.67;;;7.03;;
9294;SDS011;4686;44.496;11.324;2023-05-13T14:23:47;7.53;;;4.90;;
9294;SDS011;4686;44.496;11.324;2023-05-13T14:26:15;14.93;;;12.13;;
9294;SDS011;4686;44.496;11.324;2023-05-13T14:28:42;2.80;;;2.70;;
9294;SDS011;4686;44.496;11.324;2023-05-13T14:31:15;3.60;;;3.30;;
9294;SDS011;4686;44.496;11.324;2023-05-13T14:33:42;4.50;;;4.03;;
9294;SDS011;4686;44.496;11.324;2023-05-13T14:36:09;3.90;;;3.60;;
9294;SDS011;4686;44.496;11.324;2023-05-13T14:38:40;3.70;;;3.40;;
9294;SDS011;4686;44.496;11.324;2023-05-13T14:41:07;6.17;;;5.47;;
9294;SDS011;4686;44.496;11.324;2023-05-13T14:43:34;20.97;;;13.37;;
9294;SDS011;4686;44.496;11.324;2023-05-13T14:46:01;43.83;;;30.23;;
9294;SDS011;4686;44.496;11.324;2023-05-13T14:48:30;5.23;;;4.60;;
9294;SDS011;4686;44.496;11.324;2023-05-13T14:50:57;13.53;;;11.00;;
9294;SDS011;4686;44.496;11.324;2023-05-13T14:53:25;26.90;;;18.30;;
9294;SDS011;4686;44.496;11.324;2023-05-13T14:55:52;13.87;;;10.40;;
9294;SDS011;4686;44.496;11.324;2023-05-13T14:58:19;6.20;;;5.60;;
9294;SDS011;4686;44.496;11.324;2023-05-13T15:00:47;4.43;;;4.03;;
9294;SDS011;4686;44.496;11.324;2023-05-13T15:03:14;9.53;;;7.10;;